createdAt,value
2022-12-01T00:00:42.805Z,22.30
2022-12-01T00:03:14.428Z,22.50
2022-12-01T00:05:47.798Z,22.70
2022-12-01T00:08:20.387Z,23.10
2022-12-01T00:11:04.449Z,23.50
2022-12-01T00:13:36.986Z,24.80
2022-12-01T00:16:16.883Z,23.30
2022-12-01T00:18:50.869Z,25.60
2022-12-01T00:21:24.582Z,25.60
2022-12-01T00:23:58.397Z,21.90
2022-12-01T00:26:30.709Z,22.90
2022-12-01T00:29:02.903Z,22.40
2022-12-01T00:31:36.325Z,22.30
2022-12-01T00:34:11.370Z,21.90
2022-12-01T00:36:45.640Z,22.90
2022-12-01T00:39:19.382Z,23.40
2022-12-01T00:41:54.200Z,22.30
2022-12-01T00:46:55.777Z,19.70
2022-12-01T00:49:27.594Z,21.40
2022-12-01T00:51:59.727Z,21.90
2022-12-01T00:54:32.398Z,22.70
2022-12-01T00:57:04.457Z,21.40
2022-12-01T00:59:36.311Z,21.30
2022-12-01T01:02:08.939Z,20.90
2022-12-01T01:04:40.470Z,21.40
2022-12-01T01:07:11.800Z,20.80
2022-12-01T01:09:43.515Z,20.50
2022-12-01T01:12:14.922Z,20.10
2022-12-01T01:14:46.485Z,21.10
2022-12-01T01:17:54.403Z,21.80
2022-12-01T01:20:26.327Z,19.60
2022-12-01T01:22:58.490Z,19.30
2022-12-01T01:25:30.067Z,19.70
2022-12-01T01:28:03.098Z,19.30
2022-12-01T01:30:34.838Z,19.80
2022-12-01T01:33:06.454Z,18.60
2022-12-01T01:35:37.954Z,19.00
2022-12-01T01:38:12.243Z,20.00
2022-12-01T01:40:47.974Z,17.50
2022-12-01T01:43:39.400Z,18.40
2022-12-01T01:46:11.997Z,17.70
2022-12-01T01:48:47.914Z,17.50
2022-12-01T01:51:29.231Z,17.70
2022-12-01T01:54:07.113Z,16.70
2022-12-01T01:56:40.363Z,17.00
2022-12-01T01:59:15.997Z,15.90
2022-12-01T02:01:49.616Z,16.70
2022-12-01T02:04:22.541Z,16.10
2022-12-01T02:06:54.353Z,17.90
2022-12-01T02:09:26.514Z,16.80
2022-12-01T02:12:14.005Z,17.40
2022-12-01T02:15:05.745Z,16.70
2022-12-01T02:17:43.691Z,15.10
2022-12-01T02:20:44.130Z,15.90
2022-12-01T02:23:42.982Z,17.30
2022-12-01T02:26:38.005Z,16.80
2022-12-01T02:29:32.164Z,15.40
2022-12-01T02:32:11.807Z,16.20
2022-12-01T02:34:51.528Z,16.40
2022-12-01T02:37:31.199Z,16.80
2022-12-01T02:40:13.474Z,15.40
2022-12-01T02:42:54.525Z,16.40
2022-12-01T02:45:33.897Z,17.10
2022-12-01T02:48:12.873Z,15.90
2022-12-01T02:50:47.890Z,15.90
2022-12-01T02:53:24.434Z,15.30
2022-12-01T02:55:58.035Z,16.70
2022-12-01T02:58:29.592Z,17.10
2022-12-01T03:01:23.298Z,15.70
2022-12-01T03:04:19.990Z,16.80
2022-12-01T03:07:05.020Z,16.60
2022-12-01T03:09:49.628Z,15.90
2022-12-01T03:12:28.053Z,15.80
2022-12-01T03:15:08.545Z,15.80
2022-12-01T03:17:46.700Z,16.60
2022-12-01T03:20:26.068Z,16.10
2022-12-01T03:23:04.217Z,14.70
2022-12-01T03:25:36.688Z,15.10
2022-12-01T03:28:25.091Z,16.00
2022-12-01T03:31:01.164Z,15.80
2022-12-01T03:33:37.721Z,15.80
2022-12-01T03:36:17.079Z,16.00
2022-12-01T03:38:54.420Z,15.60
2022-12-01T03:41:41.358Z,17.50
2022-12-01T03:44:18.565Z,16.00
2022-12-01T03:46:55.980Z,15.80
2022-12-01T03:49:29.755Z,16.00
2022-12-01T03:52:11.119Z,16.70
2022-12-01T03:54:53.635Z,16.70
2022-12-01T03:57:37.610Z,15.60
2022-12-01T04:00:13.811Z,15.60
2022-12-01T04:02:49.252Z,14.50
2022-12-01T04:05:25.177Z,14.70
2022-12-01T04:07:57.140Z,15.70
2022-12-01T04:10:30.270Z,15.00
2022-12-01T04:13:01.929Z,16.30
2022-12-01T04:15:33.646Z,15.30
2022-12-01T04:18:05.131Z,15.10
2022-12-01T04:20:37.703Z,14.70
2022-12-01T04:23:11.674Z,14.90
2022-12-01T04:25:43.940Z,16.40
2022-12-01T04:31:37.140Z,16.50
2022-12-01T04:34:14.707Z,18.00
2022-12-01T04:36:46.789Z,19.00
2022-12-01T04:39:18.989Z,15.60
2022-12-01T04:41:50.773Z,16.80
2022-12-01T04:44:22.513Z,15.30
2022-12-01T04:46:54.373Z,17.50
2022-12-01T04:49:26.355Z,15.60
2022-12-01T04:51:57.901Z,14.80
2022-12-01T04:54:30.149Z,15.30
2022-12-01T04:57:06.174Z,14.70
2022-12-01T04:59:38.136Z,14.60
2022-12-01T05:02:10.063Z,16.60
2022-12-01T05:04:42.192Z,15.70
2022-12-01T05:07:13.870Z,14.70
2022-12-01T05:09:47.159Z,15.00
2022-12-01T05:12:18.646Z,15.90
2022-12-01T05:14:51.328Z,16.20
2022-12-01T05:17:23.180Z,15.10
2022-12-01T05:20:11.863Z,15.70
2022-12-01T05:23:04.726Z,15.10
2022-12-01T05:25:35.613Z,15.00
2022-12-01T05:28:07.539Z,16.50
2022-12-01T05:30:39.583Z,15.30
2022-12-01T05:33:11.849Z,16.00
2022-12-01T05:35:43.792Z,16.60
2022-12-01T05:38:15.654Z,18.30
2022-12-01T05:40:53.527Z,16.50
2022-12-01T05:43:29.380Z,15.50
2022-12-01T05:46:01.975Z,17.10
2022-12-01T05:48:34.041Z,17.00
2022-12-01T05:51:11.584Z,17.20
2022-12-01T05:53:43.508Z,15.70
2022-12-01T05:56:15.589Z,16.50
2022-12-01T05:58:47.085Z,16.00
2022-12-01T06:01:20.188Z,15.20
2022-12-01T06:03:52.492Z,16.50
2022-12-01T06:06:25.105Z,16.50
2022-12-01T06:08:57.130Z,16.80
2022-12-01T06:11:28.976Z,16.00
2022-12-01T06:14:01.027Z,15.40
2022-12-01T06:16:33.104Z,14.60
2022-12-01T06:19:05.260Z,15.30
2022-12-01T06:21:36.992Z,14.70
2022-12-01T06:24:09.461Z,15.40
2022-12-01T06:26:41.560Z,15.50
2022-12-01T06:29:14.571Z,16.30
2022-12-01T06:31:46.321Z,16.00
2022-12-01T06:34:18.918Z,17.20
2022-12-01T06:36:50.895Z,16.30
2022-12-01T06:39:22.776Z,18.30
2022-12-01T06:41:54.362Z,17.60
2022-12-01T06:44:26.144Z,18.50
2022-12-01T06:46:59.731Z,20.10
2022-12-01T06:49:32.276Z,28.90
2022-12-01T06:52:04.462Z,21.10
2022-12-01T06:54:38.103Z,24.80
2022-12-01T06:57:09.987Z,22.30
2022-12-01T06:59:41.707Z,18.90
2022-12-01T07:02:14.680Z,20.70
2022-12-01T07:04:46.792Z,21.40
2022-12-01T07:07:18.134Z,19.40
2022-12-01T07:09:50.216Z,16.90
2022-12-01T07:12:23.573Z,18.60
2022-12-01T07:14:55.022Z,16.30
2022-12-01T07:17:26.798Z,16.70
2022-12-01T07:19:59.030Z,18.90
2022-12-01T07:22:32.981Z,18.10
2022-12-01T07:25:04.820Z,17.70
2022-12-01T07:27:36.608Z,17.60
2022-12-01T07:30:11.338Z,18.00
2022-12-01T07:32:43.286Z,16.40
2022-12-01T07:35:15.210Z,17.60
2022-12-01T07:37:47.552Z,17.30
2022-12-01T07:40:20.100Z,17.70
2022-12-01T07:42:51.783Z,16.80
2022-12-01T07:45:23.527Z,17.40
2022-12-01T07:47:57.808Z,16.90
2022-12-01T07:50:30.461Z,17.20
2022-12-01T07:53:03.645Z,15.90
2022-12-01T07:55:35.165Z,16.00
2022-12-01T07:58:06.914Z,17.00
2022-12-01T08:00:39.660Z,17.00
2022-12-01T08:03:12.148Z,15.90
2022-12-01T08:05:44.466Z,17.60
2022-12-01T08:08:16.865Z,15.90
2022-12-01T08:10:49.921Z,17.00
2022-12-01T08:13:22.357Z,17.30
2022-12-01T08:15:53.817Z,16.50
2022-12-01T08:18:25.709Z,16.20
2022-12-01T08:21:00.102Z,16.40
2022-12-01T08:23:32.802Z,15.80
2022-12-01T08:26:06.678Z,17.50
2022-12-01T08:28:42.735Z,16.10
2022-12-01T08:31:17.134Z,15.50
2022-12-01T08:33:49.463Z,15.80
2022-12-01T08:36:22.492Z,15.60
2022-12-01T08:38:55.814Z,15.50
2022-12-01T08:41:28.781Z,16.30
2022-12-01T08:44:01.256Z,17.80
2022-12-01T08:46:41.311Z,19.60
2022-12-01T08:49:13.164Z,17.90
2022-12-01T08:51:44.734Z,16.10
2022-12-01T08:54:16.318Z,17.00
2022-12-01T08:56:48.525Z,16.30
2022-12-01T08:59:20.211Z,17.40
2022-12-01T09:01:54.508Z,16.70
2022-12-01T09:04:28.577Z,17.70
2022-12-01T09:07:00.834Z,18.40
2022-12-01T09:09:32.513Z,16.90
2022-12-01T09:12:04.585Z,18.40
2022-12-01T09:14:40.861Z,17.40
2022-12-01T09:17:12.708Z,18.50
2022-12-01T09:19:44.407Z,16.60
2022-12-01T09:22:16.252Z,18.00
2022-12-01T09:24:47.923Z,20.90
2022-12-01T09:27:20.409Z,16.70
2022-12-01T09:29:51.824Z,17.10
2022-12-01T09:32:23.365Z,18.20
2022-12-01T09:34:57.215Z,16.70
2022-12-01T09:37:28.933Z,18.30
2022-12-01T09:40:00.784Z,18.80
2022-12-01T09:42:35.536Z,18.10
2022-12-01T09:45:09.025Z,17.80
2022-12-01T09:47:42.890Z,17.70
2022-12-01T09:50:20.078Z,18.70
2022-12-01T09:52:55.769Z,19.00
2022-12-01T09:55:30.662Z,18.60
2022-12-01T09:58:05.681Z,17.40
2022-12-01T10:00:42.550Z,18.20
2022-12-01T10:03:26.503Z,18.20
2022-12-01T10:11:36.083Z,16.30
2022-12-01T10:14:19.296Z,18.30
2022-12-01T10:17:00.771Z,19.40
2022-12-01T10:19:39.706Z,20.00
2022-12-01T10:22:39.448Z,20.60
2022-12-01T10:25:23.535Z,19.40
2022-12-01T10:28:09.116Z,20.30
2022-12-01T10:30:50.271Z,19.10
2022-12-01T10:33:27.439Z,19.50
2022-12-01T10:36:00.298Z,21.50
2022-12-01T10:38:33.986Z,22.60
2022-12-01T10:41:08.527Z,22.20
2022-12-01T10:43:43.737Z,21.40
2022-12-01T10:46:23.232Z,21.40
2022-12-01T10:48:59.673Z,22.00
2022-12-01T10:51:31.456Z,21.30
2022-12-01T10:54:11.753Z,21.20
2022-12-01T10:56:48.036Z,20.80
2022-12-01T10:59:31.772Z,20.50
2022-12-01T11:02:06.213Z,21.30
2022-12-01T11:04:47.459Z,19.90
2022-12-01T11:07:26.294Z,18.20
2022-12-01T11:10:16.006Z,19.00
2022-12-01T11:12:55.461Z,19.50
2022-12-01T11:15:29.683Z,19.40
2022-12-01T11:18:06.094Z,18.80
2022-12-01T11:20:40.373Z,17.80
2022-12-01T11:23:30.090Z,17.40
2022-12-01T11:26:06.818Z,17.40
2022-12-01T11:28:42.705Z,16.80
2022-12-01T11:31:14.319Z,17.00
2022-12-01T11:33:51.844Z,17.30
2022-12-01T11:36:34.640Z,17.50
2022-12-01T11:39:06.462Z,16.80
2022-12-01T11:41:42.937Z,18.60
2022-12-01T11:44:49.839Z,17.90
2022-12-01T11:47:24.154Z,19.00
2022-12-01T11:50:01.024Z,18.10
2022-12-01T11:52:36.774Z,18.30
2022-12-01T11:55:24.855Z,19.00
2022-12-01T11:57:59.111Z,17.80
2022-12-01T12:00:39.654Z,17.10
2022-12-01T12:03:22.834Z,18.80
2022-12-01T12:09:30.069Z,19.70
2022-12-01T12:12:12.605Z,20.60
2022-12-01T12:15:00.065Z,20.30
2022-12-01T12:17:56.299Z,20.50
2022-12-01T12:20:54.396Z,22.50
2022-12-01T12:23:41.859Z,21.10
2022-12-01T12:26:20.601Z,21.70
2022-12-01T12:29:17.467Z,20.80
2022-12-01T12:32:02.584Z,21.60
2022-12-01T12:37:21.546Z,18.90
2022-12-01T12:40:15.534Z,20.00
2022-12-01T12:43:01.364Z,21.30
2022-12-01T12:45:43.181Z,22.30
2022-12-01T12:48:34.083Z,21.80
2022-12-01T12:53:51.297Z,20.00
2022-12-01T12:56:26.289Z,20.90
2022-12-01T12:59:02.689Z,21.50
2022-12-01T13:01:38.703Z,22.50
2022-12-01T13:04:23.122Z,22.30
2022-12-01T13:07:02.569Z,21.70
2022-12-01T13:09:40.835Z,22.80
2022-12-01T13:12:16.312Z,23.10
2022-12-01T13:14:56.390Z,21.10
2022-12-01T13:17:37.522Z,21.10
2022-12-01T13:20:15.866Z,21.80
2022-12-01T13:22:48.132Z,20.30
2022-12-01T13:25:24.272Z,21.10
2022-12-01T13:27:56.804Z,21.80
2022-12-01T13:30:29.518Z,20.40
2022-12-01T13:33:06.671Z,21.20
2022-12-01T13:35:40.462Z,19.90
2022-12-01T13:38:29.856Z,22.30
2022-12-01T13:41:26.245Z,21.00
2022-12-01T13:44:01.913Z,20.40
2022-12-01T13:46:52.038Z,20.60
2022-12-01T13:49:44.093Z,18.80
2022-12-01T13:52:31.633Z,22.90
2022-12-01T13:55:26.663Z,21.60
2022-12-01T13:58:28.488Z,23.30
2022-12-01T14:01:37.050Z,22.90
2022-12-01T14:07:24.864Z,24.20
2022-12-01T14:09:58.879Z,23.70
2022-12-01T14:12:35.104Z,25.10
2022-12-01T14:15:24.235Z,24.10
2022-12-01T14:18:05.674Z,24.70
2022-12-01T14:20:46.298Z,24.60
2022-12-01T14:23:24.529Z,26.00
2022-12-01T14:26:15.468Z,24.90
2022-12-01T14:29:12.389Z,24.30
2022-12-01T14:32:21.475Z,24.20
2022-12-01T14:35:13.356Z,24.00
2022-12-01T14:37:50.597Z,23.40
2022-12-01T14:40:33.497Z,24.40
2022-12-01T14:43:24.165Z,24.60
2022-12-01T14:46:08.540Z,25.10
2022-12-01T14:48:43.523Z,25.80
2022-12-01T14:51:24.619Z,25.80
2022-12-01T14:53:58.927Z,23.90
2022-12-01T14:56:31.816Z,26.00
2022-12-01T14:59:15.684Z,23.70
2022-12-01T15:01:47.334Z,24.30
2022-12-01T15:04:19.209Z,25.60
2022-12-01T15:06:57.760Z,27.90
2022-12-01T15:09:34.557Z,25.30
2022-12-01T15:12:08.838Z,25.90
2022-12-01T15:14:48.443Z,25.10
2022-12-01T15:17:32.959Z,27.40
2022-12-01T15:20:05.427Z,26.40
2022-12-01T15:22:37.160Z,27.30
2022-12-01T15:25:17.364Z,30.70
2022-12-01T15:28:02.548Z,29.00
2022-12-01T15:33:05.978Z,24.10
2022-12-01T15:35:37.715Z,27.50
2022-12-01T15:38:17.303Z,30.40
2022-12-01T15:43:43.068Z,28.90
2022-12-01T15:46:19.571Z,30.90
2022-12-01T15:49:06.903Z,30.20
2022-12-01T15:51:39.358Z,29.40
2022-12-01T15:54:21.668Z,29.20
2022-12-01T15:56:58.798Z,30.20
2022-12-01T15:59:36.485Z,22.90
2022-12-01T16:02:29.878Z,22.90
2022-12-01T16:05:08.476Z,24.20
2022-12-01T16:10:34.943Z,27.00
2022-12-01T16:13:36.793Z,27.70
2022-12-01T16:16:32.345Z,24.80
2022-12-01T16:19:07.491Z,26.20
2022-12-01T16:21:47.607Z,24.70
2022-12-01T16:24:22.617Z,24.00
2022-12-01T16:26:56.891Z,24.40
2022-12-01T16:29:29.965Z,22.30
2022-12-01T16:32:21.801Z,19.50
2022-12-01T16:34:55.288Z,23.50
2022-12-01T16:37:27.845Z,19.30
2022-12-01T16:39:59.574Z,19.30
2022-12-01T16:42:32.605Z,19.20
2022-12-01T16:45:04.672Z,20.30
2022-12-01T16:47:36.174Z,19.90
2022-12-01T16:50:09.356Z,18.50
2022-12-01T16:52:45.361Z,17.00
2022-12-01T16:55:27.813Z,18.40
2022-12-01T16:57:59.745Z,16.80
2022-12-01T17:00:31.803Z,17.50
2022-12-01T17:03:04.036Z,21.30
2022-12-01T17:05:36.333Z,18.50
2022-12-01T17:08:08.962Z,16.50
2022-12-01T17:10:43.664Z,14.70
2022-12-01T17:13:15.835Z,14.50
2022-12-01T17:15:48.670Z,15.30
2022-12-01T17:18:23.450Z,14.70
2022-12-01T17:23:33.478Z,12.00
2022-12-01T17:26:11.316Z,11.10
2022-12-01T17:28:44.015Z,9.50
2022-12-01T17:31:16.823Z,10.50
2022-12-01T17:33:48.615Z,11.10
2022-12-01T17:36:20.305Z,12.10
2022-12-01T17:38:51.944Z,12.50
2022-12-01T17:41:27.161Z,12.20
2022-12-01T17:43:59.286Z,10.20
2022-12-01T17:46:33.704Z,10.20
2022-12-01T17:49:09.738Z,10.40
2022-12-01T17:51:41.925Z,10.30
2022-12-01T17:54:14.185Z,11.00
2022-12-01T17:56:46.465Z,9.60
2022-12-01T17:59:17.981Z,10.60
2022-12-01T18:01:49.949Z,12.30
2022-12-01T18:04:21.669Z,11.80
2022-12-01T18:06:54.575Z,10.70
2022-12-01T18:09:27.588Z,10.60
2022-12-01T18:12:00.316Z,11.70
2022-12-01T18:14:33.414Z,12.90
2022-12-01T18:17:05.716Z,12.20
2022-12-01T18:19:39.412Z,12.90
2022-12-01T18:22:11.163Z,13.00
2022-12-01T18:24:42.901Z,14.60
2022-12-01T18:27:17.017Z,10.80
2022-12-01T18:29:49.312Z,10.80
2022-12-01T18:32:21.345Z,10.60
2022-12-01T18:34:54.405Z,10.90
2022-12-01T18:37:26.633Z,10.70
2022-12-01T18:39:59.968Z,10.70
2022-12-01T18:42:32.020Z,12.10
2022-12-01T18:45:04.214Z,11.10
2022-12-01T18:47:37.528Z,11.40
2022-12-01T18:50:11.658Z,12.00
2022-12-01T18:52:44.274Z,11.10
2022-12-01T18:55:16.700Z,12.10
2022-12-01T18:57:48.899Z,14.20
2022-12-01T19:00:23.514Z,15.50
2022-12-01T19:03:00.498Z,14.90
2022-12-01T19:05:32.779Z,15.90
2022-12-01T19:08:05.144Z,15.50
2022-12-01T19:10:38.691Z,16.50
2022-12-01T19:13:10.720Z,15.40
2022-12-01T19:15:42.829Z,16.00
2022-12-01T19:18:14.318Z,15.40
2022-12-01T19:20:46.286Z,15.90
2022-12-01T19:23:18.183Z,15.70
2022-12-01T19:25:50.311Z,16.80
2022-12-01T19:28:22.399Z,14.80
2022-12-01T19:30:54.401Z,16.00
2022-12-01T19:33:26.390Z,14.60
2022-12-01T19:36:00.101Z,13.10
2022-12-01T19:38:33.775Z,12.00
2022-12-01T19:41:10.879Z,13.30
2022-12-01T19:43:44.489Z,13.60
2022-12-01T19:46:18.520Z,12.30
2022-12-01T19:48:54.982Z,13.30
2022-12-01T19:51:28.912Z,13.80
2022-12-01T19:54:01.469Z,12.80
2022-12-01T19:56:33.776Z,12.80
2022-12-01T19:59:06.452Z,12.80
2022-12-01T20:01:39.239Z,13.10
2022-12-01T20:04:11.618Z,16.40
2022-12-01T20:06:44.120Z,14.90
2022-12-01T20:09:16.151Z,13.50
2022-12-01T20:11:48.660Z,13.80
2022-12-01T20:14:22.170Z,11.50
2022-12-01T20:16:56.612Z,11.70
2022-12-01T20:19:30.754Z,12.80
2022-12-01T20:22:02.927Z,15.10
2022-12-01T20:24:36.937Z,11.80
2022-12-01T20:27:09.011Z,10.90
2022-12-01T20:29:40.873Z,12.60
2022-12-01T20:32:15.596Z,18.00
2022-12-01T20:34:50.654Z,18.10
2022-12-01T20:37:23.092Z,14.40
2022-12-01T20:39:55.449Z,20.40
2022-12-01T20:42:27.621Z,18.30
2022-12-01T20:45:02.871Z,14.00
2022-12-01T20:47:38.208Z,29.10
2022-12-01T20:50:11.940Z,13.50
2022-12-01T20:52:44.772Z,15.90
2022-12-01T20:55:16.725Z,14.40
2022-12-01T20:57:49.155Z,14.30
2022-12-01T21:00:22.649Z,15.30
2022-12-01T21:02:54.225Z,13.40
2022-12-01T21:05:27.154Z,11.80
2022-12-01T21:07:59.461Z,10.90
2022-12-01T21:10:32.328Z,11.40
2022-12-01T21:13:37.206Z,19.40
2022-12-01T21:16:14.303Z,12.00
2022-12-01T21:18:52.112Z,14.20
2022-12-01T21:21:28.143Z,11.30
2022-12-01T21:24:11.520Z,13.70
2022-12-01T21:26:47.476Z,14.70
2022-12-01T21:29:29.803Z,16.00
2022-12-01T21:32:08.566Z,13.20
2022-12-01T21:34:40.372Z,10.80
2022-12-01T21:37:19.015Z,16.50
2022-12-01T21:39:51.567Z,15.70
2022-12-01T21:42:26.759Z,13.80
2022-12-01T21:44:59.017Z,14.40
2022-12-01T21:47:32.917Z,14.50
2022-12-01T21:50:10.466Z,13.40
2022-12-01T21:52:44.253Z,15.90
2022-12-01T21:55:36.702Z,16.20
2022-12-01T21:58:22.967Z,13.50
2022-12-01T22:00:55.998Z,12.40
2022-12-01T22:03:35.592Z,12.50
2022-12-01T22:06:32.447Z,14.50
2022-12-01T22:09:18.294Z,16.80
2022-12-01T22:11:53.932Z,13.00
2022-12-01T22:14:29.704Z,16.60
2022-12-01T22:17:13.290Z,13.20
2022-12-01T22:19:49.554Z,13.50
2022-12-01T22:22:26.281Z,12.90
2022-12-01T22:25:01.753Z,14.20
2022-12-01T22:27:36.824Z,14.60
2022-12-01T22:30:20.028Z,13.90
2022-12-01T22:33:00.491Z,11.70
2022-12-01T22:35:40.349Z,12.00
2022-12-01T22:38:26.012Z,10.90
2022-12-01T22:41:03.930Z,10.50
2022-12-01T22:43:46.303Z,12.10
2022-12-01T22:46:33.671Z,11.70
2022-12-01T22:49:14.034Z,13.40
2022-12-01T22:51:48.636Z,22.00
2022-12-01T22:54:39.521Z,17.60
2022-12-01T22:57:25.985Z,12.30
2022-12-01T22:59:58.910Z,11.80
2022-12-01T23:02:35.007Z,11.00
2022-12-01T23:05:24.800Z,12.40
2022-12-01T23:07:57.945Z,12.40
2022-12-01T23:10:35.406Z,11.00
2022-12-01T23:13:17.287Z,9.90
2022-12-01T23:15:50.730Z,10.00
2022-12-01T23:18:25.313Z,9.40
2022-12-01T23:20:58.494Z,8.00
2022-12-01T23:23:32.037Z,8.90
2022-12-01T23:26:05.604Z,9.10
2022-12-01T23:28:39.296Z,8.40
2022-12-01T23:31:12.591Z,10.70
2022-12-01T23:33:44.390Z,11.70
2022-12-01T23:36:20.536Z,10.90
2022-12-01T23:38:54.669Z,10.50
2022-12-01T23:41:32.535Z,11.20
2022-12-01T23:44:05.992Z,13.50
2022-12-01T23:46:38.321Z,11.20
2022-12-01T23:49:15.617Z,12.00
2022-12-01T23:51:50.877Z,12.40
2022-12-01T23:54:26.935Z,10.60
2022-12-01T23:57:02.348Z,11.40
2022-12-01T23:59:35.278Z,11.10
